Time;durP1;ratioP1;P1;durP2;ratioP2;P2;SDS_P1;SDS_P2;PMS_P1;PMS_P2;Temp;Humidity;BMP_temperature;BMP_pressure;BME280_temperature;BME280_humidity;BME280_pressure;Samples;Min_cycle;Max_cycle;Signal;HPM_P1;HPM_P2
2022/04/22 00:01:47;;;;;;;10.98;6.35;;;;;;;;;;5030682;28;20069;-64
2022/04/22 00:04:14;;;;;;;11.52;6.05;;;;;;;;;;5030304;28;20522;-64
2022/04/22 00:06:40;;;;;;;13.88;6.38;;;;;;;;;;5029920;28;20403;-64
2022/04/22 00:09:06;;;;;;;11.38;6.30;;;;;;;;;;5030606;28;20037;-64
2022/04/22 00:11:32;;;;;;;17.08;6.70;;;;;;;;;;5030642;28;20574;-64
2022/04/22 00:14:02;;;;;;;13.18;6.65;;;;;;;;;;5028691;28;20480;-64
2022/04/22 00:16:28;;;;;;;11.95;6.45;;;;;;;;;;5030471;28;20041;-64
2022/04/22 00:18:55;;;;;;;14.02;7.00;;;;;;;;;;5030487;28;20100;-64
2022/04/22 00:21:21;;;;;;;12.65;6.55;;;;;;;;;;5029768;28;20052;-64
2022/04/22 00:23:47;;;;;;;10.43;6.50;;;;;;;;;;5030356;28;20041;-64
2022/04/22 00:26:13;;;;;;;11.57;6.32;;;;;;;;;;5030239;28;20051;-64
2022/04/22 00:28:39;;;;;;;10.45;6.57;;;;;;;;;;5029682;28;20536;-64
2022/04/22 00:31:05;;;;;;;9.68;6.43;;;;;;;;;;5030250;28;20053;-64
2022/04/22 00:33:31;;;;;;;13.00;6.75;;;;;;;;;;5029957;28;20045;-64
2022/04/22 00:35:57;;;;;;;13.93;6.20;;;;;;;;;;5029556;28;20056;-64
2022/04/22 00:38:23;;;;;;;11.68;7.10;;;;;;;;;;5030282;28;20395;-64
2022/04/22 00:40:49;;;;;;;11.90;6.50;;;;;;;;;;5030073;28;20087;-64
2022/04/22 00:43:18;;;;;;;13.70;6.72;;;;;;;;;;5029517;28;20052;-64
2022/04/22 00:45:45;;;;;;;17.30;6.80;;;;;;;;;;5030125;28;20072;-64
2022/04/22 00:48:10;;;;;;;12.55;7.30;;;;;;;;;;5030175;28;20570;-64
2022/04/22 00:50:37;;;;;;;16.38;7.45;;;;;;;;;;5029723;28;20037;-64
2022/04/22 00:53:03;;;;;;;13.55;7.22;;;;;;;;;;5030320;28;20124;-64
2022/04/22 00:55:30;;;;;;;16.08;7.30;;;;;;;;;;5030271;28;20038;-64
2022/04/22 00:57:56;;;;;;;16.65;7.35;;;;;;;;;;5029700;28;20508;-64
2022/04/22 01:00:22;;;;;;;14.25;7.50;;;;;;;;;;5030053;28;20045;-64
2022/04/22 01:02:48;;;;;;;12.88;7.75;;;;;;;;;;5029668;28;20400;-64
2022/04/22 01:10:44;;;;;;;19.15;8.93;;;;;;;;;;5033576;28;20049;-64
2022/04/22 01:13:10;;;;;;;14.18;8.63;;;;;;;;;;5031796;28;20420;-64
2022/04/22 01:15:36;;;;;;;16.90;8.40;;;;;;;;;;5033657;28;20472;-64
2022/04/22 01:18:02;;;;;;;15.45;8.05;;;;;;;;;;5033841;28;20052;-64
2022/04/22 01:20:28;;;;;;;16.00;8.60;;;;;;;;;;5031424;28;20118;-64
2022/04/22 01:22:54;;;;;;;15.02;8.02;;;;;;;;;;5032097;28;20345;-64
2022/04/22 01:25:20;;;;;;;15.60;8.85;;;;;;;;;;5033549;28;20469;-64
2022/04/22 01:27:50;;;;;;;18.85;9.52;;;;;;;;;;5032875;28;20470;-64
2022/04/22 01:30:20;;;;;;;17.23;8.65;;;;;;;;;;5033604;28;20079;-64
2022/04/22 01:32:47;;;;;;;18.83;9.25;;;;;;;;;;5033243;28;20052;-64
2022/04/22 01:35:13;;;;;;;18.40;8.88;;;;;;;;;;5032862;28;20053;-64
2022/04/22 01:37:39;;;;;;;15.70;8.77;;;;;;;;;;5033377;28;20124;-64
2022/04/22 01:40:05;;;;;;;16.23;9.18;;;;;;;;;;5031809;28;20137;-64
2022/04/22 01:42:31;;;;;;;15.32;8.75;;;;;;;;;;5032706;28;20046;-64
2022/04/22 01:44:57;;;;;;;18.70;9.85;;;;;;;;;;5032966;28;20065;-64
2022/04/22 01:47:23;;;;;;;20.08;9.13;;;;;;;;;;5033089;28;20037;-64
2022/04/22 01:49:49;;;;;;;15.32;8.55;;;;;;;;;;5032556;28;20047;-64
2022/04/22 01:52:15;;;;;;;17.70;9.57;;;;;;;;;;5031777;28;20060;-64
2022/04/22 01:54:41;;;;;;;15.80;8.73;;;;;;;;;;5033184;28;20053;-64
2022/04/22 01:57:07;;;;;;;17.23;8.57;;;;;;;;;;5032288;28;20041;-64
2022/04/22 01:59:34;;;;;;;17.27;9.00;;;;;;;;;;5033197;28;20495;-64
2022/04/22 02:02:00;;;;;;;16.65;8.63;;;;;;;;;;5033069;28;20586;-64
2022/04/22 02:04:26;;;;;;;17.50;8.73;;;;;;;;;;5030970;28;20053;-64
2022/04/22 02:06:52;;;;;;;16.42;8.75;;;;;;;;;;5032908;28;20061;-64
2022/04/22 02:09:18;;;;;;;14.60;8.20;;;;;;;;;;5032532;28;20132;-64
2022/04/22 02:11:44;;;;;;;16.30;8.98;;;;;;;;;;5032050;28;20049;-64
2022/04/22 02:14:10;;;;;;;19.30;9.35;;;;;;;;;;5031251;28;20049;-64
2022/04/22 02:16:36;;;;;;;14.77;8.80;;;;;;;;;;5032639;28;20050;-64
2022/04/22 02:19:02;;;;;;;15.25;8.38;;;;;;;;;;5030828;28;20041;-64
2022/04/22 02:21:28;;;;;;;18.77;9.00;;;;;;;;;;5032360;28;20045;-64
2022/04/22 02:23:54;;;;;;;16.33;8.52;;;;;;;;;;5032613;28;20041;-64
2022/04/22 02:26:20;;;;;;;16.90;7.95;;;;;;;;;;5031708;28;20034;-64
2022/04/22 02:28:46;;;;;;;17.35;8.98;;;;;;;;;;5032554;28;20044;-64
2022/04/22 02:31:12;;;;;;;17.85;8.45;;;;;;;;;;5032481;28;20033;-64
2022/04/22 02:33:39;;;;;;;15.48;8.48;;;;;;;;;;5031420;28;20136;-64
2022/04/22 02:36:06;;;;;;;19.30;8.75;;;;;;;;;;5031114;28;20061;-64
2022/04/22 02:38:33;;;;;;;17.38;8.32;;;;;;;;;;5030694;28;20393;-64
2022/04/22 02:46:29;;;;;;;17.00;8.68;;;;;;;;;;5032156;28;20296;-64
2022/04/22 02:48:59;;;;;;;17.10;8.82;;;;;;;;;;5031800;28;20088;-64
2022/04/22 02:51:25;;;;;;;14.25;8.15;;;;;;;;;;5031844;28;20049;-64
2022/04/22 02:53:52;;;;;;;14.18;8.60;;;;;;;;;;5030382;28;20416;-64
2022/04/22 02:56:19;;;;;;;17.05;8.77;;;;;;;;;;5031149;28;20124;-64
2022/04/22 02:58:45;;;;;;;16.30;8.98;;;;;;;;;;5030432;28;20049;-64
2022/04/22 03:01:11;;;;;;;13.70;8.38;;;;;;;;;;5031788;28;20045;-64
2022/04/22 03:03:37;;;;;;;16.98;7.88;;;;;;;;;;5030954;28;20037;-64
2022/04/22 03:06:04;;;;;;;12.73;7.35;;;;;;;;;;5031250;28;20500;-64
2022/04/22 03:08:30;;;;;;;16.20;8.32;;;;;;;;;;5031501;28;20078;-64
2022/04/22 03:10:56;;;;;;;13.35;7.68;;;;;;;;;;5031132;28;20044;-64
2022/04/22 03:13:22;;;;;;;14.48;7.53;;;;;;;;;;5031242;28;20045;-64
2022/04/22 03:15:48;;;;;;;12.40;7.47;;;;;;;;;;5031816;28;20078;-64
2022/04/22 03:18:14;;;;;;;12.98;7.05;;;;;;;;;;5030695;28;20045;-63
2022/04/22 03:20:40;;;;;;;13.43;6.93;;;;;;;;;;5031228;28;20033;-63
2022/04/22 03:23:07;;;;;;;16.73;8.32;;;;;;;;;;5031330;28;20128;-63
2022/04/22 03:25:32;;;;;;;14.82;6.53;;;;;;;;;;5029191;28;20037;-63
2022/04/22 03:27:58;;;;;;;13.20;7.20;;;;;;;;;;5031202;28;20025;-63
2022/04/22 03:30:24;;;;;;;12.05;7.20;;;;;;;;;;5031128;28;20033;-63
2022/04/22 03:32:50;;;;;;;13.60;7.03;;;;;;;;;;5030397;28;20583;-63
2022/04/22 03:35:16;;;;;;;13.30;7.68;;;;;;;;;;5030058;28;20046;-63
2022/04/22 03:37:42;;;;;;;13.30;7.40;;;;;;;;;;5030829;28;20045;-63
2022/04/22 03:40:10;;;;;;;15.35;7.50;;;;;;;;;;5030616;28;20060;-63
2022/04/22 03:42:36;;;;;;;10.70;6.70;;;;;;;;;;5030735;28;20045;-63
2022/04/22 03:45:03;;;;;;;14.93;6.65;;;;;;;;;;5031100;28;20567;-63
2022/04/22 03:47:29;;;;;;;11.23;6.05;;;;;;;;;;5030094;28;20099;-63
2022/04/22 03:49:55;;;;;;;11.57;6.35;;;;;;;;;;5030873;28;20049;-63
2022/04/22 03:52:21;;;;;;;13.40;6.47;;;;;;;;;;5031007;28;20073;-63
2022/04/22 03:54:47;;;;;;;11.50;5.80;;;;;;;;;;5030352;28;20045;-64
2022/04/22 03:59:58;;;;;;;10.82;5.25;;;;;;;;;;5030825;28;20053;-64
2022/04/22 04:02:24;;;;;;;13.43;5.90;;;;;;;;;;5030031;28;20038;-63
2022/04/22 04:04:50;;;;;;;7.75;5.00;;;;;;;;;;5030625;28;20063;-63
2022/04/22 04:07:17;;;;;;;13.70;6.45;;;;;;;;;;5029096;28;20141;-63
2022/04/22 04:17:57;;;;;;;10.85;5.22;;;;;;;;;;5029966;28;20048;-64
2022/04/22 04:23:14;;;;;;;9.10;5.35;;;;;;;;;;5030375;28;20107;-64
2022/04/22 04:25:40;;;;;;;11.60;5.40;;;;;;;;;;5029816;28;20097;-64
2022/04/22 04:28:10;;;;;;;9.13;5.55;;;;;;;;;;5030416;28;20113;-64
2022/04/22 04:30:39;;;;;;;10.13;5.45;;;;;;;;;;5030521;28;20038;-64
2022/04/22 04:33:06;;;;;;;11.27;5.43;;;;;;;;;;5030070;28;20060;-64
2022/04/22 04:35:34;;;;;;;11.60;5.20;;;;;;;;;;5030403;28;20124;-64
2022/04/22 04:38:00;;;;;;;9.48;4.88;;;;;;;;;;5029998;28;20046;-64
2022/04/22 04:40:26;;;;;;;8.43;4.78;;;;;;;;;;5029609;28;20120;-64
2022/04/22 04:42:53;;;;;;;15.80;5.30;;;;;;;;;;5033444;28;20178;-64
2022/04/22 04:45:19;;;;;;;9.10;4.80;;;;;;;;;;5032816;28;20046;-64
2022/04/22 04:47:45;;;;;;;7.57;4.47;;;;;;;;;;5033747;28;20041;-64
2022/04/22 04:50:12;;;;;;;10.95;5.03;;;;;;;;;;5034151;28;20045;-64
2022/04/22 04:52:38;;;;;;;10.65;5.18;;;;;;;;;;5034179;28;20071;-64
2022/04/22 04:55:05;;;;;;;7.70;4.60;;;;;;;;;;5033434;28;20527;-64
2022/04/22 04:57:31;;;;;;;9.00;5.15;;;;;;;;;;5032535;28;20041;-64
2022/04/22 04:59:57;;;;;;;7.13;4.70;;;;;;;;;;5034109;28;20041;-64
2022/04/22 05:02:23;;;;;;;8.70;4.72;;;;;;;;;;5032989;28;20383;-64
2022/04/22 05:04:49;;;;;;;9.00;5.32;;;;;;;;;;5033356;28;20057;-64
2022/04/22 05:07:15;;;;;;;7.15;4.88;;;;;;;;;;5033722;28;20120;-64
2022/04/22 05:09:41;;;;;;;10.80;5.10;;;;;;;;;;5033120;28;20144;-64
2022/04/22 05:12:10;;;;;;;8.75;4.93;;;;;;;;;;5033873;28;20053;-64
2022/04/22 05:14:38;;;;;;;8.35;4.38;;;;;;;;;;5033891;28;20052;-64
2022/04/22 05:17:04;;;;;;;9.55;5.05;;;;;;;;;;5031272;28;20106;-64
2022/04/22 05:19:30;;;;;;;11.82;5.68;;;;;;;;;;5032167;28;20041;-64
2022/04/22 05:21:56;;;;;;;7.82;4.40;;;;;;;;;;5033280;28;20037;-64
2022/04/22 05:24:22;;;;;;;9.30;4.93;;;;;;;;;;5032913;28;20072;-64
2022/04/22 05:26:48;;;;;;;13.23;5.20;;;;;;;;;;5031963;28;20048;-64
2022/04/22 05:34:44;;;;;;;8.90;4.40;;;;;;;;;;5033068;28;20056;-64
2022/04/22 05:37:10;;;;;;;10.55;4.60;;;;;;;;;;5033034;28;20049;-64
2022/04/22 05:39:36;;;;;;;8.82;4.88;;;;;;;;;;5032480;28;20491;-64
2022/04/22 05:42:02;;;;;;;10.13;4.57;;;;;;;;;;5033122;28;20530;-64
2022/04/22 05:44:28;;;;;;;9.70;4.85;;;;;;;;;;5031893;28;20395;-64
2022/04/22 05:46:54;;;;;;;8.93;4.38;;;;;;;;;;5032213;28;20115;-64
2022/04/22 05:49:20;;;;;;;10.02;4.45;;;;;;;;;;5032672;28;20037;-64
2022/04/22 05:51:46;;;;;;;10.85;4.40;;;;;;;;;;5032847;28;20037;-64
2022/04/22 05:54:12;;;;;;;6.82;4.30;;;;;;;;;;5029318;28;20372;-64
2022/04/22 05:56:38;;;;;;;6.43;4.50;;;;;;;;;;5033037;28;20049;-64
2022/04/22 05:59:04;;;;;;;7.07;4.70;;;;;;;;;;5032785;28;20126;-64
2022/04/22 06:01:30;;;;;;;7.25;4.53;;;;;;;;;;5032094;28;20124;-64
2022/04/22 06:03:56;;;;;;;8.43;4.32;;;;;;;;;;5032854;28;20037;-64
2022/04/22 06:06:22;;;;;;;6.78;3.92;;;;;;;;;;5032296;28;20147;-64
2022/04/22 06:11:33;;;;;;;9.25;4.30;;;;;;;;;;5032442;28;20446;-64
2022/04/22 06:13:59;;;;;;;6.35;4.45;;;;;;;;;;5047593;28;20120;-64
2022/04/22 06:16:25;;;;;;;7.45;4.72;;;;;;;;;;5031948;28;20193;-64
2022/04/22 06:18:51;;;;;;;7.65;4.40;;;;;;;;;;5032297;28;20042;-64
2022/04/22 06:21:17;;;;;;;8.95;5.03;;;;;;;;;;5032591;28;20033;-64
2022/04/22 06:23:43;;;;;;;6.45;4.32;;;;;;;;;;5031520;28;20063;-64
2022/04/22 06:26:09;;;;;;;14.68;4.82;;;;;;;;;;5032465;28;20034;-64
2022/04/22 06:28:35;;;;;;;9.13;4.72;;;;;;;;;;5032058;28;20041;-64
2022/04/22 06:31:01;;;;;;;7.97;4.75;;;;;;;;;;5031946;28;20045;-64
2022/04/22 06:33:28;;;;;;;8.82;4.10;;;;;;;;;;5032115;28;20455;-64
2022/04/22 06:35:54;;;;;;;7.60;4.25;;;;;;;;;;5031979;28;20040;-64
2022/04/22 06:38:21;;;;;;;7.50;4.13;;;;;;;;;;5031111;28;20045;-64
2022/04/22 06:46:17;;;;;;;8.70;3.92;;;;;;;;;;5031519;28;20045;-64
2022/04/22 06:48:43;;;;;;;6.32;4.20;;;;;;;;;;5031748;28;20367;-64
2022/04/22 06:51:10;;;;;;;6.40;3.83;;;;;;;;;;5030992;28;20056;-64
2022/04/22 06:53:36;;;;;;;8.77;4.10;;;;;;;;;;5030774;28;20053;-64
2022/04/22 06:56:03;;;;;;;10.45;4.20;;;;;;;;;;5031468;28;20036;-64
2022/04/22 06:58:33;;;;;;;8.70;3.92;;;;;;;;;;5031449;28;20044;-64
2022/04/22 07:00:59;;;;;;;7.10;4.10;;;;;;;;;;5030932;28;20407;-64
2022/04/22 07:03:25;;;;;;;9.50;4.07;;;;;;;;;;5030114;28;20037;-64
2022/04/22 07:05:52;;;;;;;7.00;4.13;;;;;;;;;;5030127;28;20058;-64
2022/04/22 07:08:20;;;;;;;6.13;4.47;;;;;;;;;;5030663;28;20085;-64
2022/04/22 07:10:47;;;;;;;6.95;3.88;;;;;;;;;;5031528;28;20450;-64
2022/04/22 07:13:14;;;;;;;8.45;4.45;;;;;;;;;;5031666;28;20473;-64
2022/04/22 07:15:40;;;;;;;6.60;3.90;;;;;;;;;;5030322;28;20046;-64
2022/04/22 07:18:07;;;;;;;7.35;4.72;;;;;;;;;;5031569;28;20040;-64
2022/04/22 07:20:33;;;;;;;11.00;4.38;;;;;;;;;;5031181;28;20033;-64
2022/04/22 07:22:59;;;;;;;7.68;4.07;;;;;;;;;;5030545;28;20186;-65
2022/04/22 07:25:26;;;;;;;7.65;4.25;;;;;;;;;;5031066;28;20048;-65
2022/04/22 07:27:52;;;;;;;6.97;3.80;;;;;;;;;;5031044;28;20080;-65
2022/04/22 07:30:19;;;;;;;7.07;4.30;;;;;;;;;;5030460;28;20399;-65
2022/04/22 07:32:46;;;;;;;6.40;3.85;;;;;;;;;;5031359;28;20084;-65
2022/04/22 07:35:12;;;;;;;7.88;4.00;;;;;;;;;;5030984;28;20049;-65
2022/04/22 07:37:39;;;;;;;7.72;3.60;;;;;;;;;;5029092;28;20049;-65
2022/04/22 07:40:05;;;;;;;5.40;3.30;;;;;;;;;;5031338;28;20050;-65
2022/04/22 07:42:33;;;;;;;5.70;3.40;;;;;;;;;;5025012;28;20042;-65
2022/04/22 07:47:47;;;;;;;4.55;2.92;;;;;;;;;;5030534;28;20538;-64
2022/04/22 07:50:13;;;;;;;7.95;3.60;;;;;;;;;;5030031;28;20049;-64
2022/04/22 07:52:39;;;;;;;8.60;3.42;;;;;;;;;;5030300;28;20041;-64
2022/04/22 07:55:06;;;;;;;8.10;3.28;;;;;;;;;;5030369;28;20055;-64
2022/04/22 07:57:32;;;;;;;7.15;3.38;;;;;;;;;;5029508;28;20076;-64
2022/04/22 07:59:58;;;;;;;4.40;2.95;;;;;;;;;;5029387;28;20041;-64
2022/04/22 08:02:25;;;;;;;5.93;2.97;;;;;;;;;;5029538;28;20045;-63
2022/04/22 08:04:51;;;;;;;8.07;2.90;;;;;;;;;;5030855;28;20049;-63
2022/04/22 08:07:18;;;;;;;6.65;3.05;;;;;;;;;;5029987;28;20413;-63
2022/04/22 08:09:45;;;;;;;5.03;2.90;;;;;;;;;;5030921;28;20041;-63
2022/04/22 08:12:12;;;;;;;7.05;2.83;;;;;;;;;;5030483;28;20357;-63
2022/04/22 08:14:38;;;;;;;4.70;2.88;;;;;;;;;;5028551;28;20360;-63
2022/04/22 08:17:05;;;;;;;6.05;2.83;;;;;;;;;;5029843;28;20038;-63
2022/04/22 08:19:31;;;;;;;6.35;2.92;;;;;;;;;;5029565;28;20392;-63
2022/04/22 08:21:57;;;;;;;4.97;2.47;;;;;;;;;;5029937;28;20518;-63
2022/04/22 08:24:23;;;;;;;3.45;2.35;;;;;;;;;;5030661;28;20120;-63
2022/04/22 08:26:49;;;;;;;5.38;2.70;;;;;;;;;;5031243;28;20044;-63
2022/04/22 08:29:16;;;;;;;6.50;2.40;;;;;;;;;;5031193;28;20056;-63
2022/04/22 08:31:42;;;;;;;5.18;2.58;;;;;;;;;;5031663;28;20431;-63
2022/04/22 08:34:08;;;;;;;4.32;2.20;;;;;;;;;;5031544;28;20149;-63
2022/04/22 08:36:34;;;;;;;4.60;2.50;;;;;;;;;;5030626;28;20124;-63
2022/04/22 08:39:00;;;;;;;4.13;2.58;;;;;;;;;;5031133;28;20554;-63
2022/04/22 08:41:27;;;;;;;4.25;2.45;;;;;;;;;;5031054;28;20136;-63
2022/04/22 08:43:56;;;;;;;5.10;2.40;;;;;;;;;;5030966;28;20041;-63
2022/04/22 08:51:52;;;;;;;8.23;2.72;;;;;;;;;;5035207;28;20060;-63
2022/04/22 08:54:20;;;;;;;7.10;2.50;;;;;;;;;;5038005;28;20043;-63
2022/04/22 08:56:46;;;;;;;4.25;2.88;;;;;;;;;;5041765;28;20041;-64
2022/04/22 08:59:13;;;;;;;5.82;3.17;;;;;;;;;;5036607;28;20465;-65
2022/04/22 09:01:39;;;;;;;5.55;2.88;;;;;;;;;;5033043;28;20080;-64
2022/04/22 09:04:06;;;;;;;6.88;2.67;;;;;;;;;;5037084;28;20042;-63
2022/04/22 09:06:32;;;;;;;5.45;2.53;;;;;;;;;;5035659;28;20479;-63
2022/04/22 09:08:58;;;;;;;4.95;3.13;;;;;;;;;;5034395;28;20443;-64
2022/04/22 09:11:29;;;;;;;6.82;2.42;;;;;;;;;;5030589;28;20421;-65
2022/04/22 09:13:55;;;;;;;4.78;2.53;;;;;;;;;;5032480;28;20052;-65
2022/04/22 09:16:22;;;;;;;3.58;2.65;;;;;;;;;;5031983;28;20045;-65
2022/04/22 09:18:58;;;;;;;4.90;2.40;;;;;;;;;;5032083;28;20216;-65
2022/04/22 09:21:25;;;;;;;2.78;2.30;;;;;;;;;;5029599;28;20664;-65
2022/04/22 09:23:53;;;;;;;5.60;2.60;;;;;;;;;;5034782;28;20044;-64
2022/04/22 09:26:22;;;;;;;4.28;2.53;;;;;;;;;;5030365;28;20052;-65
2022/04/22 09:28:58;;;;;;;6.50;2.65;;;;;;;;;;5037880;28;20056;-64
2022/04/22 09:31:25;;;;;;;4.53;2.88;;;;;;;;;;5040565;28;20095;-64
2022/04/22 09:33:56;;;;;;;6.07;2.90;;;;;;;;;;5040245;28;20598;-64
2022/04/22 09:45:07;;;;;;;3.80;2.40;;;;;;;;;;5034351;28;20054;-65
2022/04/22 09:47:35;;;;;;;2.65;2.08;;;;;;;;;;5033414;28;20107;-65
2022/04/22 09:50:03;;;;;;;3.40;2.40;;;;;;;;;;5033565;28;20131;-65
2022/04/22 09:52:36;;;;;;;4.90;2.78;;;;;;;;;;5034077;28;20045;-65
2022/04/22 09:55:06;;;;;;;5.82;2.38;;;;;;;;;;5035700;28;20037;-65
2022/04/22 09:57:52;;;;;;;4.35;2.40;;;;;;;;;;5035935;28;20041;-64
2022/04/22 10:00:21;;;;;;;3.90;2.28;;;;;;;;;;5038571;28;20041;-64
2022/04/22 10:02:52;;;;;;;3.17;2.33;;;;;;;;;;5033923;28;20050;-65
2022/04/22 10:05:19;;;;;;;5.95;2.70;;;;;;;;;;5033757;28;20091;-65
2022/04/22 10:07:48;;;;;;;5.60;2.90;;;;;;;;;;5042294;28;20049;-63
2022/04/22 10:10:14;;;;;;;6.57;2.28;;;;;;;;;;5038659;28;20041;-64
2022/04/22 10:12:41;;;;;;;3.92;2.72;;;;;;;;;;5042229;28;20045;-63
2022/04/22 10:15:09;;;;;;;7.88;2.72;;;;;;;;;;5038953;28;20439;-63
2022/04/22 10:17:39;;;;;;;8.50;2.70;;;;;;;;;;5036474;28;20503;-65
2022/04/22 10:20:07;;;;;;;4.43;2.83;;;;;;;;;;5034812;28;20053;-64
2022/04/22 10:22:34;;;;;;;4.07;2.53;;;;;;;;;;5033216;28;20052;-64
2022/04/22 10:25:03;;;;;;;5.43;2.50;;;;;;;;;;5035323;28;20036;-64
2022/04/22 10:27:34;;;;;;;4.95;2.40;;;;;;;;;;5036053;28;20037;-63
2022/04/22 10:30:00;;;;;;;5.20;2.80;;;;;;;;;;5036750;28;20130;-63
2022/04/22 10:32:27;;;;;;;5.50;2.20;;;;;;;;;;5037129;28;20048;-64
2022/04/22 10:34:59;;;;;;;4.18;2.30;;;;;;;;;;5034514;28;20488;-63
2022/04/22 10:37:26;;;;;;;4.85;2.25;;;;;;;;;;5034700;28;20056;-64
2022/04/22 10:39:56;;;;;;;6.15;2.47;;;;;;;;;;5035006;28;20045;-64
2022/04/22 10:42:37;;;;;;;4.47;2.50;;;;;;;;;;5031370;28;20162;-63
2022/04/22 10:47:50;;;;;;;5.22;2.72;;;;;;;;;;5034675;28;20092;-64
2022/04/22 10:50:23;;;;;;;5.03;2.70;;;;;;;;;;5033834;28;20454;-64
2022/04/22 10:53:04;;;;;;;4.93;2.25;;;;;;;;;;5033258;28;20033;-65
2022/04/22 10:55:30;;;;;;;3.22;2.63;;;;;;;;;;5033202;28;20043;-64
2022/04/22 10:58:11;;;;;;;6.57;2.80;;;;;;;;;;5033232;28;20037;-64
2022/04/22 11:00:39;;;;;;;5.07;2.85;;;;;;;;;;5034890;28;20396;-64
2022/04/22 11:03:10;;;;;;;6.60;2.78;;;;;;;;;;5033996;28;20128;-64
2022/04/22 11:05:37;;;;;;;5.32;3.17;;;;;;;;;;5034349;28;20057;-64
2022/04/22 11:08:06;;;;;;;4.10;2.75;;;;;;;;;;5034544;28;20045;-64
2022/04/22 11:10:57;;;;;;;6.28;2.90;;;;;;;;;;5034850;28;20080;-64
2022/04/22 11:13:25;;;;;;;5.45;2.83;;;;;;;;;;5034418;28;20034;-64
2022/04/22 11:15:51;;;;;;;5.95;2.80;;;;;;;;;;5034094;28;20477;-64
2022/04/22 11:18:18;;;;;;;7.75;2.90;;;;;;;;;;5032205;28;20041;-64
2022/04/22 11:20:45;;;;;;;7.93;3.40;;;;;;;;;;5033734;28;20049;-64
2022/04/22 11:23:14;;;;;;;7.25;3.45;;;;;;;;;;5034746;28;20169;-64
2022/04/22 11:25:41;;;;;;;5.90;3.08;;;;;;;;;;5032134;28;20037;-64
2022/04/22 11:28:08;;;;;;;8.48;3.42;;;;;;;;;;5034016;28;20042;-64
2022/04/22 11:30:35;;;;;;;7.13;3.13;;;;;;;;;;5032180;28;20077;-64
2022/04/22 11:33:18;;;;;;;4.78;3.13;;;;;;;;;;5034917;28;20045;-63
2022/04/22 11:35:47;;;;;;;4.40;3.13;;;;;;;;;;5034055;28;20049;-64
2022/04/22 11:38:13;;;;;;;6.97;3.30;;;;;;;;;;5034052;28;20120;-63
2022/04/22 11:40:40;;;;;;;4.00;3.33;;;;;;;;;;5034423;28;20052;-64
2022/04/22 11:43:09;;;;;;;5.32;3.65;;;;;;;;;;5033268;28;20104;-64
2022/04/22 11:45:36;;;;;;;7.28;3.47;;;;;;;;;;5033493;28;20049;-64
2022/04/22 11:48:30;;;;;;;6.35;3.22;;;;;;;;;;5031945;28;20033;-64
2022/04/22 11:50:58;;;;;;;5.70;3.33;;;;;;;;;;5029226;28;20128;-64
2022/04/22 11:53:26;;;;;;;4.57;3.20;;;;;;;;;;5033820;28;20044;-64
2022/04/22 11:55:52;;;;;;;5.15;3.25;;;;;;;;;;5032558;28;20048;-65
2022/04/22 11:58:24;;;;;;;5.00;3.00;;;;;;;;;;5032530;28;20037;-64
2022/04/22 12:06:21;;;;;;;5.93;3.30;;;;;;;;;;4994605;28;20081;-64
2022/04/22 12:09:00;;;;;;;6.32;3.13;;;;;;;;;;4993561;28;20505;-64
2022/04/22 12:11:26;;;;;;;4.97;3.15;;;;;;;;;;4992017;28;20038;-64
2022/04/22 12:13:53;;;;;;;5.88;3.40;;;;;;;;;;4993402;28;20245;-65
2022/04/22 12:16:23;;;;;;;5.45;2.90;;;;;;;;;;4992525;28;20030;-65
2022/04/22 12:18:50;;;;;;;6.50;2.95;;;;;;;;;;4991886;28;20076;-65
2022/04/22 12:21:17;;;;;;;4.00;3.13;;;;;;;;;;4988430;28;20473;-65
2022/04/22 12:23:44;;;;;;;5.05;3.47;;;;;;;;;;4990746;28;20038;-62
2022/04/22 12:26:15;;;;;;;5.68;3.28;;;;;;;;;;4990373;28;20166;-62
2022/04/22 12:28:59;;;;;;;9.38;3.35;;;;;;;;;;4993334;28;20065;-62
2022/04/22 12:31:26;;;;;;;5.68;3.50;;;;;;;;;;4992466;28;20069;-64
2022/04/22 12:33:58;;;;;;;3.78;2.83;;;;;;;;;;4990927;28;20050;-64
2022/04/22 12:36:24;;;;;;;5.60;3.50;;;;;;;;;;4989651;28;20088;-65
2022/04/22 12:38:51;;;;;;;6.82;4.38;;;;;;;;;;4992201;28;20038;-62
2022/04/22 12:41:25;;;;;;;7.15;3.67;;;;;;;;;;4991448;28;20121;-62
2022/04/22 12:43:55;;;;;;;7.45;3.58;;;;;;;;;;4992393;28;20500;-62
2022/04/22 12:52:10;;;;;;;7.60;4.20;;;;;;;;;;4991301;28;20135;-62
2022/04/22 12:54:37;;;;;;;8.45;4.45;;;;;;;;;;4990571;28;20050;-62
2022/04/22 12:57:06;;;;;;;6.38;3.67;;;;;;;;;;4990074;28;20046;-63
2022/04/22 12:59:42;;;;;;;6.78;4.20;;;;;;;;;;4990835;28;20124;-63
2022/04/22 13:02:09;;;;;;;9.82;4.32;;;;;;;;;;4992072;28;20042;-61
2022/04/22 13:04:49;;;;;;;5.68;3.85;;;;;;;;;;5006482;28;20463;-62
2022/04/22 13:07:15;;;;;;;8.63;4.65;;;;;;;;;;5033695;28;20052;-62
2022/04/22 13:09:41;;;;;;;10.32;4.93;;;;;;;;;;5033322;28;20548;-62
2022/04/22 13:12:07;;;;;;;7.45;5.65;;;;;;;;;;5034207;28;20069;-61
2022/04/22 13:14:34;;;;;;;7.25;4.80;;;;;;;;;;5033660;28;20528;-62
2022/04/22 13:17:01;;;;;;;7.75;4.57;;;;;;;;;;5032327;28;20044;-63
2022/04/22 13:19:27;;;;;;;7.88;4.80;;;;;;;;;;5033956;28;20045;-63
2022/04/22 13:21:53;;;;;;;10.25;5.15;;;;;;;;;;5033336;28;20041;-63
2022/04/22 13:24:19;;;;;;;6.97;5.22;;;;;;;;;;5035154;28;20427;-63
2022/04/22 13:26:45;;;;;;;7.07;5.03;;;;;;;;;;5034505;28;20447;-64
2022/04/22 13:29:11;;;;;;;8.52;5.10;;;;;;;;;;5034065;28;20048;-62
2022/04/22 13:31:37;;;;;;;7.70;5.30;;;;;;;;;;5035455;28;20056;-63
2022/04/22 13:34:03;;;;;;;7.90;5.45;;;;;;;;;;5037355;28;20615;-62
2022/04/22 13:36:31;;;;;;;7.68;5.45;;;;;;;;;;5034827;28;20081;-63
2022/04/22 13:38:57;;;;;;;6.55;5.10;;;;;;;;;;5034852;28;20465;-63
2022/04/22 13:41:23;;;;;;;6.88;5.25;;;;;;;;;;5035009;28;20045;-63
2022/04/22 13:43:49;;;;;;;8.05;5.50;;;;;;;;;;5034595;28;20498;-63
2022/04/22 13:54:29;;;;;;;10.90;5.55;;;;;;;;;;5047435;28;20094;-63
2022/04/22 13:56:55;;;;;;;8.32;5.50;;;;;;;;;;5034999;28;20124;-63
2022/04/22 13:59:21;;;;;;;11.32;5.78;;;;;;;;;;5034099;28;20080;-63
2022/04/22 14:01:47;;;;;;;11.25;6.00;;;;;;;;;;5034458;28;20473;-63
2022/04/22 14:04:13;;;;;;;9.32;5.15;;;;;;;;;;5035140;28;20174;-63
2022/04/22 14:06:42;;;;;;;10.27;5.13;;;;;;;;;;5035078;28;20041;-63
2022/04/22 14:09:08;;;;;;;8.45;5.30;;;;;;;;;;5034254;28;20056;-63
2022/04/22 14:11:34;;;;;;;10.30;5.88;;;;;;;;;;5050346;28;20037;-63
2022/04/22 14:14:00;;;;;;;9.40;5.13;;;;;;;;;;5034414;28;20099;-63
2022/04/22 14:16:26;;;;;;;8.90;4.72;;;;;;;;;;5033921;28;20064;-63
2022/04/22 14:18:53;;;;;;;8.55;5.30;;;;;;;;;;5034612;28;20444;-63
2022/04/22 14:21:19;;;;;;;8.90;5.15;;;;;;;;;;5032629;28;20068;-63
2022/04/22 14:23:45;;;;;;;9.15;5.05;;;;;;;;;;5033792;28;20484;-63
2022/04/22 14:26:13;;;;;;;9.18;4.97;;;;;;;;;;5033680;28;20052;-63
2022/04/22 14:28:39;;;;;;;6.35;4.82;;;;;;;;;;5033813;28;20044;-63
2022/04/22 14:31:06;;;;;;;6.28;4.70;;;;;;;;;;5032964;28;20199;-63
2022/04/22 14:33:32;;;;;;;6.00;4.85;;;;;;;;;;5033425;28;20037;-63
2022/04/22 14:35:58;;;;;;;8.65;4.88;;;;;;;;;;5032945;28;20041;-63
2022/04/22 14:38:24;;;;;;;8.20;4.88;;;;;;;;;;5032648;28;20116;-63
2022/04/22 14:40:51;;;;;;;7.28;4.57;;;;;;;;;;5033417;28;20038;-63
2022/04/22 14:43:17;;;;;;;6.43;4.30;;;;;;;;;;5032987;28;20053;-63
2022/04/22 14:45:43;;;;;;;8.98;4.70;;;;;;;;;;5032187;28;20043;-63
2022/04/22 14:48:09;;;;;;;6.40;4.70;;;;;;;;;;5032655;28;20044;-63
2022/04/22 14:50:35;;;;;;;6.18;3.40;;;;;;;;;;5033037;28;20084;-63
2022/04/22 14:53:02;;;;;;;6.38;3.75;;;;;;;;;;5032056;28;20052;-63
2022/04/22 14:55:28;;;;;;;6.53;3.30;;;;;;;;;;5032813;28;20046;-63
2022/04/22 14:57:54;;;;;;;4.65;3.28;;;;;;;;;;5032608;28;20462;-63
2022/04/22 15:00:20;;;;;;;11.13;4.28;;;;;;;;;;5030530;28;20072;-63
2022/04/22 15:02:46;;;;;;;8.45;3.78;;;;;;;;;;5031371;28;20054;-63
2022/04/22 15:05:12;;;;;;;9.32;4.10;;;;;;;;;;5032764;28;20045;-63
2022/04/22 15:07:38;;;;;;;6.80;4.00;;;;;;;;;;5032200;28;20045;-63
2022/04/22 15:10:05;;;;;;;7.55;3.05;;;;;;;;;;5032551;28;20037;-63
2022/04/22 15:12:31;;;;;;;5.03;3.60;;;;;;;;;;5031973;28;20049;-63
2022/04/22 15:14:57;;;;;;;15.65;3.60;;;;;;;;;;5031377;28;20068;-63
2022/04/22 15:25:37;;;;;;;6.65;3.35;;;;;;;;;;5031114;28;20037;-63
2022/04/22 15:28:03;;;;;;;5.65;3.10;;;;;;;;;;5029785;28;20046;-63
2022/04/22 15:30:48;;;;;;;5.05;2.90;;;;;;;;;;5030853;28;20120;-63
2022/04/22 15:33:14;;;;;;;4.95;2.72;;;;;;;;;;5030290;28;20042;-63
2022/04/22 15:35:40;;;;;;;5.93;3.47;;;;;;;;;;5030984;28;20037;-63
2022/04/22 15:38:06;;;;;;;6.68;3.70;;;;;;;;;;5031134;28;20051;-63
2022/04/22 15:40:32;;;;;;;6.90;3.20;;;;;;;;;;5030510;28;20072;-63
2022/04/22 15:42:58;;;;;;;6.28;3.78;;;;;;;;;;5046669;28;20052;-63
2022/04/22 15:45:24;;;;;;;4.57;3.10;;;;;;;;;;5030635;28;20373;-63
2022/04/22 15:47:50;;;;;;;4.97;3.38;;;;;;;;;;5031133;28;20044;-63
2022/04/22 15:50:16;;;;;;;6.90;2.97;;;;;;;;;;5030107;28;20536;-63
2022/04/22 15:52:42;;;;;;;5.97;3.50;;;;;;;;;;5029636;28;20116;-63
2022/04/22 15:55:08;;;;;;;7.45;3.35;;;;;;;;;;5032151;28;20065;-63
2022/04/22 15:57:35;;;;;;;6.00;3.22;;;;;;;;;;5030378;28;20461;-63
2022/04/22 16:00:01;;;;;;;5.35;3.35;;;;;;;;;;5031356;28;20045;-63
2022/04/22 16:02:27;;;;;;;5.30;3.25;;;;;;;;;;5030496;28;20069;-63
2022/04/22 16:04:53;;;;;;;7.00;3.70;;;;;;;;;;5031555;28;20080;-63